Grundy Center, IA (50638)

7:14 PM CDT on May 28, 2015 (GMT -0500)
Scout Creek | | Change Station
CLOSE
Current Station
Personal Weather Station
Location: Reinbeck, IA
Elevation: 942 ft
Nearby Weather Stations

Elev 942 ft 42.34 °N, 92.55 °W | Updated 7 minutes ago

Partly Cloudy
Partly Cloudy
75.0 °F
Feels Like 77 °F
N
8.9
Wind Variable Wind from South

Today
High -- | Low -- °F
--% Chance of Precip.
Yesterday
High -- | Low -- °F
Precip. -- in
5:39 AM 8:38 PM
Waxing Gibbous, 79% visible
Pressure 29.99 in
Visibility 10.0 miles
Clouds Scattered Clouds 7000 ft
Mostly Cloudy 8000 ft
Overcast 11000 ft
Heat Index 77 °F
Dew Point 59 °F
Humidity 57%
Rainfall 0.00 in
Snow Depth Not available.
UV 0 out of 12
Pollen 8.20 out of 12
Air Quality Not available.
Flu Activity Sporadic
METAR KMIW 282353Z AUTO 15009KT 10SM SCT070 BKN080 OVC110 23/16 A3000 RMK AO2 SLP155 T02330156 10267 20233 58012

More Conditions Fewer Conditions

Pressure 29.99 in
Visibility 10.0 miles
Clouds Scattered Clouds 7000 ft
Mostly Cloudy 8000 ft
Overcast 11000 ft
Heat Index 77 °F
Dew Point 59 °F
Humidity 57%
Rainfall 0.00 in
Snow Depth Not available.
UV 0 out of 12
Pollen 8.20 out of 12
Air Quality Not available.
Flu Activity Sporadic
METAR KMIW 282353Z AUTO 15009KT 10SM SCT070 BKN080 OVC110 23/16 A3000 RMK AO2 SLP155 T02330156 10267 20233 58012

More Conditions Fewer Conditions

10-Day Weather Forecast

Almanac

Astronomy

May. 28, 2015 Rise Set
Actual Time
Civil Twilight
Nautical Twilight
Astronomical Twilight
Moon
Length of Visible Light
Length of Day
Tomorrow will be .
, % of the Moon is Illuminated

Today's Extremes

State Highs State Lows

Community

WunderPhotos

Upload Photos

1,825,097 photos uploaded!

WunderBlogs® & News

Nearby

Air Quality

  Air Quality AQ Index Pollutant
Not available.

Snow Depth

Station Depth Elevation

Earthquake Activity

City Distance Mag. Time & Date
Minimum magnitude displayed is 2.5.

Coastal Water Temperatures

Place Temperature

Stations

Nearby Weather Stations

Station Location Temp. Windchill Dew Point Humidity Wind Precip. Elev Updated Type